Upstream stations:
Downstream station:
SHEF ID: ICTK1 ARKANSAS R AT WICHITA, KS
STATION TYPE:
Regulating: Stage = 12.00, Flow = 10627
PRECIP STAGE RIV-FLOW BAT-LOAD
in ft cfs volt
Ccp-Rev Ccp-Rev Ccp-Rev Ccp-Rev
(US/Central)
02/26 00:00 0.00 3.19 228 12.41
02/26 01:00 0.00 3.20 232 12.41
02/26 02:00 0.00 3.19 228 12.41
02/26 03:00 0.00 3.19 228 12.41
02/26 04:00 0.00 3.17 221 12.41
02/26 05:00 0.00 3.15 213 12.41
02/26 06:00 0.00 3.13 206 12.33
02/26 07:00 0.00 3.11 199 12.25
02/26 08:00 0.00 3.08 189 13.13
02/26 09:00 0.00 3.07 185 14.08
02/26 10:00 0.00 3.05 179 14.24
02/26 11:00 0.00 3.04 175 14.40
02/26 12:00 0.00 3.05 179 14.40
02/26 13:00 0.00 3.07 185 14.32
02/26 14:00 0.00 3.08 189 14.00
02/26 15:00 0.00 3.07 185 14.00
02/26 16:00 0.00 3.08 189 13.76
02/26 17:00 0.00 3.10 196 13.68
02/26 18:00 0.00 3.13 206 13.53
02/26 19:00 0.00 3.25 251 12.81
02/26 20:00 0.00 3.35 290 12.49
02/26 21:00 0.00 3.36 295 12.49
02/26 22:00 ---- ---- ---- ----
02/26 23:00 ---- ---- ---- ----